Share

Kathryn, ND (58049)

1:34 AM CDT on April 24, 2014 (GMT -0500)
Valley City (KBAC) Elev 1401 ft | 46.94 °N, 98.02 °W | Change Station

Current weather conditions updated 19 minutes ago

Overcast
Overcast
39 °F
Feels Like 32 °F
N
12
Wind Variable Wind from South
Sunrise 6:28 AM
Sunset 8:32 PM
Moon Waning Crescent

Today is forecast to be Much Warmer than yesterday.

Pressure 29.78 in
Visibility 10.0 miles
Clouds Overcast 1000 ft
Windchill 32 °F
Dew Point 39 °F
Humidity 100%
Rainfall 0.00 in
Snow Depth Not available.
UV 0 out of 16
Pollen 7.80 out of 12
Air Quality Not available.
Flu Activity Sporadic
METAR KBAC 240615Z AUTO 17010KT 10SM OVC010 04/04 A2978 RMK AO2

More Conditions Fewer Conditions

Pressure 29.78 in
Visibility 10.0 miles
Clouds Overcast 1000 ft
Windchill 32 °F
Dew Point 39 °F
Humidity 100%
Rainfall 0.00 in
Snow Depth Not available.
UV 0 out of 16
Pollen 7.80 out of 12
Air Quality Not available.
Flu Activity Sporadic
METAR KBAC 240615Z AUTO 17010KT 10SM OVC010 04/04 A2978 RMK AO2

More Conditions Fewer Conditions

10-Day Weather Forecast

Almanac

Astronomy

Apr. 24, 2014 Rise Set
Actual Time 6:28 AM CDT 8:32 PM CDT
Civil Twilight 5:55 AM CDT 9:05 PM CDT
Nautical Twilight 5:15 AM CDT 9:45 PM CDT
Astronomical Twilight 4:30 AM CDT 10:31 PM CDT
Moon 3:59 AM CDT 3:32 PM CDT
Length of Visible Light 15h 09m
Length of Day
14h 03m
Tomorrow will be 3m 3s longer.
Waning Crescent, 28% of the Moon is Illuminated
Today
Waning Crescent
Apr 29
New
May 6
First Quarter
May 14
Full
May 21
Last Quarter

Today's Extremes

State Highs State Lows

Community

  • Stacked
    Stacked
  • clouds approaching Red Sox Nation
    clouds approaching Red Sox Nation
  • Balance
    Balance
  • Nestled In
    Nestled In
  • Stunning Sunrise
    Stunning Sunrise

WunderPhotos

Upload Photos

1,704,568 photos uploaded!

WunderBlogs® & News

Nearby

Snow Depth

Station Depth Elevation
No new snow has been reported.

Coastal Water Temperatures

Place Temperature
No Stations Reporting

Earthquake Activity

City Distance Mag. Time & Date
No recent earthquake activity has been reported nearby.
Minimum magnitude displayed is 2.5.

Nearby Weather Stations

Station Location Temp. Windchill Dew Point Humidity Wind Precip. Elev Updated Type
Valley City State University, Valley City, ND 40.2 °F 37 °F - 91% SE  at  5.0 mph 0.00 in / hr 1220 ft 1:31 AM CDT Normal

Show More Stations Show Fewer Stations

What do you think?

We're not finished. Please let us know what you like, what you don't like, and what you are still missing.